Time;durP1;ratioP1;P1;durP2;ratioP2;P2;SDS_P1;SDS_P2;PMS_P1;PMS_P2;Temp;Humidity;BMP_temperature;BMP_pressure;BME280_temperature;BME280_humidity;BME280_pressure;Samples;Min_cycle;Max_cycle;Signal;HPM_P1;HPM_P2
2023/07/19 00:00:33;;;;;;;;;;;23.40;66.70;;;-151.14;100.00;62537.16;4976264;28;19985;-85
2023/07/19 00:03:01;;;;;;;;;;;23.40;66.70;;;-151.14;100.00;62537.16;4960406;28;19922;-85
2023/07/19 00:05:29;;;;;;;;;;;23.40;66.70;;;-151.14;100.00;62537.16;4975916;28;19930;-86
2023/07/19 00:07:57;;;;;;;;;;;23.40;66.70;;;-151.14;100.00;62537.16;4976506;28;19922;-84
2023/07/19 00:10:25;;;;;;;;;;;23.40;66.70;;;-151.14;100.00;62537.16;4976018;28;20125;-84
2023/07/19 00:12:53;;;;;;;;;;;23.40;66.80;;;22.78;100.00;62537.16;4976214;28;19928;-85
2023/07/19 00:15:21;;;;;;;;;;;23.40;66.80;;;-151.14;100.00;62537.16;4975965;28;19922;-85
2023/07/19 00:17:50;;;;;;;;;;;23.40;66.90;;;-151.14;100.00;62537.16;4975791;28;19922;-84
2023/07/19 00:20:18;;;;;;;;;;;23.40;66.80;;;-151.14;100.00;62537.16;4975935;28;19922;-84
2023/07/19 00:22:46;;;;;;;;;;;23.40;66.80;;;-151.14;100.00;62537.16;4960061;28;19922;-85
2023/07/19 00:25:14;;;;;;;;;;;23.40;66.60;;;-151.14;100.00;62537.16;4974737;28;19922;-84
2023/07/19 00:27:42;;;;;;;;;;;23.40;66.60;;;22.74;100.00;62537.16;4959370;28;20291;-85
2023/07/19 00:30:11;;;;;;;;;;;23.40;66.50;;;-151.14;100.00;62537.16;4976103;28;20216;-85
2023/07/19 00:32:39;;;;;;;;;;;23.40;66.70;;;-151.14;100.00;62537.16;4975667;28;20117;-86
2023/07/19 00:35:10;;;;;;;;;;;23.40;66.70;;;-151.14;100.00;62537.16;4975790;28;19922;-85
2023/07/19 00:37:38;;;;;;;;;;;23.40;66.90;;;-151.14;100.00;62537.16;4975469;28;19944;-86
2023/07/19 00:40:07;;;;;;;;;;;23.40;66.60;;;-151.14;100.00;62537.16;4975767;28;19922;-86
2023/07/19 00:42:34;;;;;;;;;;;23.40;66.50;;;-151.14;100.00;62537.16;4959877;28;19922;-86
2023/07/19 00:45:02;;;;;;;;;;;23.40;66.40;;;22.69;100.00;62537.16;4959796;28;20239;-85
2023/07/19 00:47:30;;;;;;;;;;;23.40;66.50;;;22.68;100.00;62537.16;4959264;28;20090;-86
2023/07/19 00:49:58;;;;;;;;;;;23.30;66.50;;;22.67;100.00;62537.16;4978960;28;19936;-86
2023/07/19 00:52:27;;;;;;;;;;;23.30;66.50;;;22.67;100.00;62537.16;4979000;28;19932;-85
2023/07/19 00:54:55;;;;;;;;;;;23.30;66.60;;;-151.14;100.00;62537.16;5012416;28;19921;-85
2023/07/19 00:57:23;;;;;;;;;;;23.30;66.60;;;-151.14;100.00;62537.16;5010540;28;19921;-85
2023/07/19 00:59:51;;;;;;;;;;;23.30;66.60;;;-151.14;100.00;62537.16;4989788;28;20359;-85
2023/07/19 01:02:19;;;;;;;;;;;23.30;66.60;;;-151.14;100.00;62537.16;4994832;28;20113;-84
2023/07/19 01:04:47;;;;;;;;;;;23.30;66.70;;;-151.14;100.00;62537.16;4995098;28;20227;-85
2023/07/19 01:07:15;;;;;;;;;;;23.30;66.60;;;-151.14;100.00;62537.16;4977968;28;19927;-85
2023/07/19 01:09:44;;;;;;;;;;;23.30;67.50;;;-151.14;100.00;62537.16;4978544;28;19923;-85
2023/07/19 01:12:12;;;;;;;;;;;23.30;66.60;;;-151.14;100.00;62537.16;4978580;28;19977;-85
2023/07/19 01:14:40;;;;;;;;;;;23.30;66.80;;;22.63;100.00;62537.16;4978527;28;20213;-85
2023/07/19 01:17:08;;;;;;;;;;;23.30;66.70;;;-151.14;100.00;62537.16;4977991;28;19937;-85
2023/07/19 01:19:36;;;;;;;;;;;23.30;66.70;;;-151.14;100.00;62537.16;4978518;28;19928;-85
2023/07/19 01:22:04;;;;;;;;;;;23.30;66.50;;;-151.14;100.00;62537.16;4994564;28;20126;-85
2023/07/19 01:24:34;;;;;;;;;;;23.30;66.50;;;-151.14;100.00;62537.16;4994649;28;19921;-85
2023/07/19 01:27:04;;;;;;;;;;;23.30;66.50;;;28.66;100.00;62537.16;4994052;28;19922;-85
2023/07/19 01:29:31;;;;;;;;;;;23.30;66.70;;;-151.14;100.00;62537.16;4994641;28;19921;-85
2023/07/19 01:31:59;;;;;;;;;;;23.30;66.70;;;22.61;100.00;62537.16;4994246;28;20235;-85
2023/07/19 01:34:29;;;;;;;;;;;23.30;66.50;;;22.59;100.00;62537.16;5011913;28;19921;-84
2023/07/19 01:36:56;;;;;;;;;;;23.30;66.50;;;-151.14;100.00;62537.16;4977167;28;19932;-85
2023/07/19 01:39:24;;;;;;;;;;;23.20;66.30;;;-151.14;100.00;62537.16;4978262;28;20119;-85
2023/07/19 01:41:54;;;;;;;;;;;23.20;66.40;;;22.57;100.00;62537.16;4994312;28;19921;-85
2023/07/19 01:44:21;;;;;;;;;;;23.20;66.40;;;-151.14;100.00;62537.16;4994518;28;20209;-85
2023/07/19 01:46:49;;;;;;;;;;;23.20;66.40;;;-151.14;100.00;62537.16;4993530;28;19922;-85
2023/07/19 01:49:17;;;;;;;;;;;23.20;66.50;;;-151.14;100.00;62537.16;4978077;28;19928;-85
2023/07/19 01:51:45;;;;;;;;;;;23.20;66.40;;;-151.14;100.00;62537.16;4994299;28;20131;-86
2023/07/19 01:54:13;;;;;;;;;;;23.20;66.50;;;-151.14;100.00;62537.16;4978364;28;19922;-85
2023/07/19 01:56:43;;;;;;;;;;;23.20;66.50;;;-151.14;100.00;62537.16;4993899;28;20108;-85
2023/07/19 01:59:15;;;;;;;;;;;23.20;66.40;;;-151.14;100.00;62537.16;4978156;28;20203;-85
2023/07/19 02:01:43;;;;;;;;;;;23.20;66.30;;;-151.14;100.00;62537.16;4974453;28;19922;-85
2023/07/19 02:04:11;;;;;;;;;;;23.20;66.20;;;-151.14;100.00;62537.16;4990740;28;19944;-84
2023/07/19 02:06:41;;;;;;;;;;;23.20;66.30;;;-151.14;100.00;62537.16;4958053;28;19922;-85
2023/07/19 02:09:09;;;;;;;;;;;23.20;66.40;;;22.50;100.00;62537.16;4974607;28;19922;-85
2023/07/19 02:11:36;;;;;;;;;;;23.20;66.60;;;-151.14;100.00;62537.16;4958438;28;19921;-84
2023/07/19 02:14:04;;;;;;;;;;;23.20;66.70;;;22.49;100.00;62537.16;4974668;28;19922;-84
2023/07/19 02:16:34;;;;;;;;;;;23.20;66.60;;;-151.14;100.00;62537.16;4957900;28;19921;-84
2023/07/19 02:19:02;;;;;;;;;;;23.20;66.50;;;-151.14;100.00;62537.16;4958455;28;19928;-84
2023/07/19 02:21:30;;;;;;;;;;;23.20;66.40;;;-151.14;100.00;62537.16;4990513;28;19928;-84
2023/07/19 02:23:58;;;;;;;;;;;23.10;66.40;;;28.66;100.00;62537.16;4974445;28;19921;-85
2023/07/19 02:26:26;;;;;;;;;;;23.10;66.50;;;-151.14;100.00;62537.16;4957696;28;19926;-85
2023/07/19 02:28:54;;;;;;;;;;;23.10;66.60;;;-151.14;100.00;62537.16;4958454;28;19922;-84
2023/07/19 02:31:22;;;;;;;;;;;23.10;66.70;;;-151.14;100.00;62537.16;4958335;28;19944;-85
2023/07/19 02:33:51;;;;;;;;;;;23.10;66.70;;;-151.14;100.00;62537.16;4974257;28;19928;-84
2023/07/19 02:36:19;;;;;;;;;;;23.10;66.60;;;28.66;100.00;62537.16;4957600;28;19936;-85
2023/07/19 02:38:47;;;;;;;;;;;23.10;66.80;;;-151.14;100.00;62537.16;4958281;28;19921;-85
2023/07/19 02:41:18;;;;;;;;;;;23.10;66.70;;;-151.14;100.00;62537.16;4974172;28;20260;-85
2023/07/19 02:43:48;;;;;;;;;;;23.10;66.50;;;-151.14;100.00;62537.16;4974041;28;20371;-85
2023/07/19 02:46:16;;;;;;;;;;;23.10;66.40;;;-151.14;100.00;62537.16;4957575;28;19944;-85
2023/07/19 02:48:44;;;;;;;;;;;23.10;66.40;;;-151.14;100.00;62537.16;4974603;28;19922;-85
2023/07/19 02:51:13;;;;;;;;;;;23.10;66.50;;;39.25;100.00;62537.16;4993461;28;19929;-85
2023/07/19 02:53:41;;;;;;;;;;;23.10;66.50;;;-151.14;100.00;62537.16;4977336;28;19922;-85
2023/07/19 02:56:09;;;;;;;;;;;23.10;66.60;;;-151.14;100.00;62537.16;4976938;28;19944;-85
2023/07/19 02:58:37;;;;;;;;;;;23.10;66.70;;;22.43;100.00;62537.16;4994488;28;19928;-85
2023/07/19 03:01:05;;;;;;;;;;;23.10;66.70;;;-151.14;100.00;62537.16;4960665;28;19921;-85
2023/07/19 03:03:33;;;;;;;;;;;23.10;66.60;;;-151.14;100.00;62537.16;4976093;28;19922;-85
2023/07/19 03:06:01;;;;;;;;;;;23.10;66.70;;;-151.14;100.00;62537.16;4976416;28;20124;-85
2023/07/19 03:08:31;;;;;;;;;;;23.10;66.70;;;-151.14;100.00;62537.16;5006449;28;19922;-85
2023/07/19 03:10:59;;;;;;;;;;;23.10;66.80;;;-151.14;100.00;62537.16;5013948;28;19921;-85
2023/07/19 03:13:27;;;;;;;;;;;23.10;66.80;;;-151.14;100.00;62537.16;4990182;28;19935;-85
2023/07/19 03:15:55;;;;;;;;;;;23.10;67.00;;;-151.14;100.00;62537.16;5013395;28;19928;-85
2023/07/19 03:18:23;;;;;;;;;;;23.10;66.80;;;22.41;100.00;62537.16;4996501;28;19921;-85
2023/07/19 03:20:57;;;;;;;;;;;23.10;66.80;;;-151.14;100.00;62537.16;4980136;28;20113;-85
2023/07/19 03:23:25;;;;;;;;;;;23.10;66.70;;;-151.14;100.00;62537.16;4996285;28;19921;-85
2023/07/19 03:25:57;;;;;;;;;;;23.10;66.70;;;-151.14;100.00;62537.16;4979645;28;19922;-86
2023/07/19 03:28:26;;;;;;;;;;;23.10;66.70;;;28.66;100.00;62537.16;4980169;28;20212;-85
2023/07/19 03:30:55;;;;;;;;;;;23.10;66.70;;;-151.14;100.00;62537.16;4996436;28;19921;-85
2023/07/19 03:33:23;;;;;;;;;;;23.10;66.80;;;-151.14;100.00;62537.16;4996217;28;20106;-85
2023/07/19 03:35:53;;;;;;;;;;;23.10;66.70;;;-151.14;100.00;62537.16;4995798;28;19922;-85
2023/07/19 03:38:21;;;;;;;;;;;23.10;66.80;;;22.40;100.00;62537.16;5013362;28;19928;-84
2023/07/19 03:40:52;;;;;;;;;;;23.10;66.90;;;-151.14;100.00;62537.16;5012556;28;19922;-85
2023/07/19 03:43:22;;;;;;;;;;;23.10;66.90;;;22.40;100.00;62537.16;4995954;28;19922;-85
2023/07/19 03:45:50;;;;;;;;;;;23.10;67.00;;;-151.14;100.00;62537.16;4979307;28;19921;-85
2023/07/19 03:48:21;;;;;;;;;;;23.10;66.90;;;-151.14;100.00;62537.16;4979830;28;20235;-84
2023/07/19 03:50:56;;;;;;;;;;;23.10;66.80;;;-151.14;100.00;62537.16;4995921;28;19922;-85
2023/07/19 03:53:25;;;;;;;;;;;23.10;66.70;;;-151.14;100.00;62537.16;4996104;28;19921;-85
2023/07/19 03:55:54;;;;;;;;;;;23.10;66.60;;;22.36;100.00;62537.16;5011789;28;19922;-85
2023/07/19 03:58:25;;;;;;;;;;;23.10;66.70;;;-151.14;100.00;62537.16;4976244;28;20209;-85
2023/07/19 04:00:53;;;;;;;;;;;23.10;66.70;;;-151.14;100.00;62537.16;4976251;28;19922;-85
2023/07/19 04:03:21;;;;;;;;;;;23.00;66.70;;;22.37;100.00;62537.16;4960299;28;19922;-85
2023/07/19 04:05:49;;;;;;;;;;;23.00;66.60;;;22.46;100.00;62537.16;4959629;28;19922;-85
2023/07/19 04:08:17;;;;;;;;;;;23.00;66.70;;;-151.14;100.00;62537.16;4976255;28;19922;-85
2023/07/19 04:10:45;;;;;;;;;;;23.10;66.60;;;-151.14;100.00;62537.16;4976228;28;19922;-85
2023/07/19 04:13:13;;;;;;;;;;;23.10;66.70;;;-151.14;100.00;62537.16;4960033;28;19922;-85
2023/07/19 04:15:44;;;;;;;;;;;23.00;66.70;;;-151.14;100.00;62537.16;4959672;28;19945;-85
2023/07/19 04:18:13;;;;;;;;;;;23.00;66.80;;;22.38;100.00;62537.16;4959999;28;19928;-85
2023/07/19 04:20:41;;;;;;;;;;;23.10;67.10;;;-151.14;100.00;62537.16;4976022;28;19930;-85
2023/07/19 04:23:09;;;;;;;;;;;23.10;67.10;;;20.72;100.00;62537.16;4960052;28;19922;-85
2023/07/19 04:25:38;;;;;;;;;;;23.10;67.20;;;20.72;100.00;62537.16;4959558;28;19926;-85
2023/07/19 04:28:07;;;;;;;;;;;23.10;67.10;;;22.42;100.00;62537.16;4960025;28;20125;-85
2023/07/19 04:30:36;;;;;;;;;;;23.10;67.00;;;-151.14;100.00;62537.16;4959876;28;19930;-85
2023/07/19 04:33:06;;;;;;;;;;;23.10;67.00;;;22.43;100.00;62537.16;4976123;28;19922;-85
2023/07/19 04:35:34;;;;;;;;;;;23.10;67.20;;;22.42;100.00;62537.16;4993394;28;19922;-85
2023/07/19 04:38:03;;;;;;;;;;;23.10;67.40;;;22.43;100.00;62537.16;5011699;28;19928;-85
2023/07/19 04:40:32;;;;;;;;;;;23.10;67.50;;;-151.14;100.00;62537.16;4995271;28;19928;-85
2023/07/19 04:43:01;;;;;;;;;;;23.10;67.60;;;22.44;100.00;62537.16;4995411;28;19927;-85
2023/07/19 04:45:30;;;;;;;;;;;23.10;67.70;;;-151.14;100.00;62537.16;4978356;28;19921;-84
2023/07/19 04:47:58;;;;;;;;;;;23.10;67.30;;;-151.14;100.00;62537.16;4978959;28;19922;-84
2023/07/19 04:50:28;;;;;;;;;;;23.10;67.40;;;22.45;100.00;62537.16;4978726;28;19921;-84
2023/07/19 04:52:57;;;;;;;;;;;23.10;67.60;;;22.46;100.00;62537.16;4978940;28;19921;-85
2023/07/19 04:55:25;;;;;;;;;;;23.10;67.80;;;-151.14;100.00;62537.16;4994757;28;19928;-84
2023/07/19 04:57:54;;;;;;;;;;;23.10;67.90;;;22.49;100.00;62537.16;4994946;28;19928;-85
2023/07/19 05:00:22;;;;;;;;;;;23.10;68.00;;;-151.14;100.00;62537.16;4978606;28;20024;-84
2023/07/19 05:02:50;;;;;;;;;;;23.10;68.00;;;-151.14;100.00;62537.16;4994946;28;19921;-84
2023/07/19 05:05:19;;;;;;;;;;;23.10;67.90;;;-151.14;100.00;62537.16;4978678;28;19943;-85
2023/07/19 05:07:49;;;;;;;;;;;23.20;67.90;;;-151.14;100.00;62537.16;4994707;28;19928;-85
2023/07/19 05:10:17;;;;;;;;;;;23.20;67.80;;;22.50;100.00;62537.16;4978671;28;19922;-84
2023/07/19 05:12:45;;;;;;;;;;;23.20;67.70;;;-151.14;100.00;62537.16;5010425;28;20231;-84
2023/07/19 05:15:13;;;;;;;;;;;23.20;67.80;;;22.50;100.00;62537.16;4994583;28;19921;-85
2023/07/19 05:17:42;;;;;;;;;;;23.20;67.90;;;-151.14;100.00;62537.16;4993964;28;19922;-84
2023/07/19 05:20:12;;;;;;;;;;;23.10;68.00;;;-151.14;100.00;62537.16;4978284;28;19921;-84
2023/07/19 05:22:40;;;;;;;;;;;23.20;67.90;;;22.54;100.00;62537.16;4978560;28;19921;-85
2023/07/19 05:25:10;;;;;;;;;;;23.20;68.00;;;22.52;100.00;62537.16;4994509;28;19984;-85
2023/07/19 05:27:38;;;;;;;;;;;23.20;68.10;;;-151.14;100.00;62537.16;4977832;28;19966;-85
2023/07/19 05:30:08;;;;;;;;;;;23.20;68.20;;;-151.14;100.00;62537.16;5010917;28;19927;-85
2023/07/19 05:32:36;;;;;;;;;;;23.20;68.30;;;-151.14;100.00;62537.16;5011192;28;19922;-84
2023/07/19 05:35:05;;;;;;;;;;;23.20;68.60;;;-151.14;100.00;62537.16;4994405;28;19921;-85
2023/07/19 05:37:33;;;;;;;;;;;23.20;68.50;;;22.58;100.00;62537.16;4993748;28;19933;-85
2023/07/19 05:40:03;;;;;;;;;;;23.20;68.80;;;-151.14;100.00;62537.16;4994301;28;19921;-85
2023/07/19 05:42:33;;;;;;;;;;;23.20;68.70;;;-151.14;100.00;62537.16;4978291;28;20101;-85
2023/07/19 05:45:02;;;;;;;;;;;23.20;68.60;;;18.08;100.00;62537.16;4990937;28;19928;-84
2023/07/19 05:47:30;;;;;;;;;;;23.30;69.10;;;-151.14;100.00;62537.16;4958212;28;20217;-85
2023/07/19 05:49:58;;;;;;;;;;;23.30;68.80;;;22.80;100.00;62537.16;4958808;28;19928;-85
2023/07/19 05:52:27;;;;;;;;;;;23.40;69.20;;;22.86;100.00;62537.16;4958702;28;19921;-85
2023/07/19 05:54:55;;;;;;;;;;;23.40;68.60;;;-151.14;100.00;62537.16;4974968;28;19928;-85
2023/07/19 05:57:23;;;;;;;;;;;23.50;68.10;;;-151.14;100.00;62537.16;4991557;28;19922;-84
2023/07/19 05:59:53;;;;;;;;;;;23.50;67.90;;;-151.14;100.00;62537.16;4974547;28;19928;-84
2023/07/19 06:02:21;;;;;;;;;;;23.60;67.70;;;-151.14;100.00;62537.16;4991848;28;19936;-84
2023/07/19 06:04:49;;;;;;;;;;;23.60;67.30;;;-151.14;100.00;62537.16;4990807;28;19922;-84
2023/07/19 06:07:18;;;;;;;;;;;23.70;66.80;;;-151.14;100.00;62537.16;4989923;28;19922;-84
2023/07/19 06:09:46;;;;;;;;;;;23.70;67.10;;;-151.14;100.00;62537.16;4974639;28;19944;-85
2023/07/19 06:12:14;;;;;;;;;;;23.70;67.10;;;-151.14;100.00;62537.16;4991916;28;19922;-84
2023/07/19 06:14:42;;;;;;;;;;;23.80;66.80;;;-151.14;100.00;62537.16;4958468;28;19921;-84
2023/07/19 06:17:12;;;;;;;;;;;23.90;66.60;;;-151.14;100.00;62537.16;4973982;28;20094;-85
2023/07/19 06:19:40;;;;;;;;;;;23.90;66.50;;;-151.14;100.00;62537.16;4974432;28;19921;-85
2023/07/19 06:22:08;;;;;;;;;;;24.00;66.30;;;-151.14;100.00;62537.16;4974504;28;20225;-85
2023/07/19 06:24:36;;;;;;;;;;;24.00;66.20;;;-151.14;100.00;62537.16;4977825;28;19928;-84
2023/07/19 06:27:05;;;;;;;;;;;24.00;65.80;;;-151.14;100.00;62537.16;4977320;28;19922;-84
2023/07/19 06:29:33;;;;;;;;;;;24.00;65.60;;;-151.14;100.00;62537.16;4978000;28;19921;-85
2023/07/19 06:32:02;;;;;;;;;;;24.10;65.30;;;-151.14;100.00;62537.16;4977821;28;19929;-84
2023/07/19 06:34:31;;;;;;;;;;;24.00;65.30;;;-151.14;100.00;62537.16;4977713;28;19928;-85
2023/07/19 06:36:59;;;;;;;;;;;24.00;65.10;;;-151.14;100.00;62537.16;4977134;28;19922;-85
2023/07/19 06:39:28;;;;;;;;;;;24.00;64.60;;;-151.14;100.00;62537.16;4961514;28;19922;-85
2023/07/19 06:41:56;;;;;;;;;;;24.00;64.70;;;-151.14;100.00;62537.16;5010229;28;19922;-85
2023/07/19 06:44:25;;;;;;;;;;;24.00;64.90;;;-151.14;100.00;62537.16;4977479;28;19922;-84
2023/07/19 06:46:53;;;;;;;;;;;23.90;65.00;;;-151.14;100.00;62537.16;4961024;28;19922;-84
2023/07/19 06:49:21;;;;;;;;;;;23.90;65.30;;;-151.14;100.00;62537.16;4977410;28;19921;-85
2023/07/19 06:51:51;;;;;;;;;;;23.90;65.80;;;-151.14;100.00;62537.16;4961378;28;19929;-85
2023/07/19 06:54:19;;;;;;;;;;;23.90;65.80;;;-151.14;100.00;62537.16;4961451;28;19928;-84
2023/07/19 06:56:47;;;;;;;;;;;24.00;65.80;;;-151.14;100.00;62537.16;5009257;28;19928;-85
2023/07/19 06:59:16;;;;;;;;;;;23.90;66.00;;;-151.14;100.00;62537.16;4961336;28;19921;-85
2023/07/19 07:01:44;;;;;;;;;;;23.90;66.00;;;-151.14;100.00;62537.16;4976902;28;20123;-84
2023/07/19 07:04:12;;;;;;;;;;;23.90;66.20;;;-151.14;100.00;62537.16;5009889;28;19928;-84
2023/07/19 07:06:40;;;;;;;;;;;23.90;66.30;;;-151.14;100.00;62537.16;4976430;28;19922;-85
2023/07/19 07:09:10;;;;;;;;;;;23.90;66.40;;;-151.14;100.00;62537.16;4994648;28;19936;-85
2023/07/19 07:11:38;;;;;;;;;;;24.00;66.50;;;-151.14;100.00;62537.16;5009584;28;19922;-85
2023/07/19 07:14:06;;;;;;;;;;;24.00;66.50;;;-151.14;100.00;62537.16;4977385;28;20090;-85
2023/07/19 07:16:34;;;;;;;;;;;24.10;66.50;;;-151.14;100.00;62537.16;4976487;28;19926;-85
2023/07/19 07:19:02;;;;;;;;;;;24.10;66.40;;;-151.14;100.00;62537.16;4977335;28;19921;-85
2023/07/19 07:21:31;;;;;;;;;;;24.20;66.30;;;-151.14;100.00;62537.16;4976791;28;19921;-85
2023/07/19 07:23:59;;;;;;;;;;;24.20;66.20;;;-151.14;100.00;62537.16;4961181;28;20121;-85
2023/07/19 07:26:28;;;;;;;;;;;24.30;66.10;;;-151.14;100.00;62537.16;4960279;28;19922;-85
2023/07/19 07:28:57;;;;;;;;;;;24.30;66.10;;;-151.14;100.00;62537.16;5009560;28;19943;-85
2023/07/19 07:31:25;;;;;;;;;;;24.40;66.10;;;-151.14;100.00;62537.16;4960708;28;19921;-86
2023/07/19 07:33:53;;;;;;;;;;;24.40;66.00;;;-151.14;100.00;62537.16;4976499;28;19925;-85
2023/07/19 07:36:22;;;;;;;;;;;24.50;66.10;;;-151.14;100.00;62537.16;4975803;28;20213;-85
2023/07/19 07:38:50;;;;;;;;;;;24.50;66.00;;;-151.14;100.00;62537.16;4976576;28;19944;-85
2023/07/19 07:41:18;;;;;;;;;;;24.60;65.90;;;-151.14;100.00;62537.16;4976365;28;19921;-85
2023/07/19 07:43:48;;;;;;;;;;;24.60;66.00;;;-151.14;100.00;62537.16;4976471;28;19922;-85
2023/07/19 07:46:16;;;;;;;;;;;24.60;66.00;;;-151.14;100.00;62537.16;4959578;28;20209;-85
2023/07/19 07:48:44;;;;;;;;;;;24.60;66.00;;;-151.14;100.00;62537.16;5011469;28;19922;-85
2023/07/19 07:51:12;;;;;;;;;;;24.70;65.90;;;-151.14;100.00;62537.16;4995054;28;19922;-85
2023/07/19 07:53:41;;;;;;;;;;;24.70;66.00;;;-151.14;100.00;62537.16;4995645;28;19936;-85
2023/07/19 07:56:09;;;;;;;;;;;24.70;66.00;;;-151.14;100.00;62537.16;4994919;28;19930;-84
2023/07/19 07:58:37;;;;;;;;;;;24.70;65.90;;;-151.14;100.00;62537.16;4979616;28;19930;-85
2023/07/19 08:01:07;;;;;;;;;;;24.70;66.00;;;-151.14;100.00;62537.16;4979088;28;19921;-85
2023/07/19 08:03:35;;;;;;;;;;;24.70;65.90;;;-151.14;100.00;62537.16;4994646;23;19922;-81
2023/07/19 08:06:04;;;;;;;;;;;24.80;65.80;;;-151.14;100.00;62537.16;4995435;28;19929;-81
2023/07/19 08:08:32;;;;;;;;;;;24.80;66.00;;;-151.14;100.00;62537.16;4996255;28;19947;-81
2023/07/19 08:11:04;;;;;;;;;;;24.80;66.10;;;-151.14;100.00;62537.16;4995882;28;19928;-81
2023/07/19 08:13:33;;;;;;;;;;;24.80;66.20;;;-151.14;100.00;62537.16;5025397;28;19921;-82
2023/07/19 08:16:01;;;;;;;;;;;24.80;66.00;;;-151.14;100.00;62537.16;5014816;28;20144;-82
2023/07/19 08:18:30;;;;;;;;;;;24.90;66.20;;;-151.14;100.00;62537.16;4999207;28;19921;-82
2023/07/19 08:20:59;;;;;;;;;;;24.90;66.10;;;-151.14;100.00;62537.16;5015252;28;19921;-82
2023/07/19 08:23:27;;;;;;;;;;;24.90;66.10;;;-151.14;100.00;62537.16;5026273;28;19921;-82
2023/07/19 08:25:58;;;;;;;;;;;24.90;66.10;;;-151.14;100.00;62537.16;5017789;28;19928;-83
2023/07/19 08:28:26;;;;;;;;;;;24.90;66.00;;;-151.14;100.00;62537.16;5034753;28;20123;-82
2023/07/19 08:30:55;;;;;;;;;;;24.90;66.00;;;-151.14;100.00;62537.16;5034972;28;19943;-82
2023/07/19 08:33:23;;;;;;;;;;;25.00;66.20;;;-151.14;100.00;62537.16;5034809;28;19920;-82
2023/07/19 08:35:53;;;;;;;;;;;25.00;66.20;;;-151.14;100.00;62537.16;5034314;28;20211;-82
2023/07/19 08:38:21;;;;;;;;;;;25.00;66.20;;;-151.14;100.00;62537.16;5018279;28;19927;-83
2023/07/19 08:40:55;;;;;;;;;;;25.00;66.30;;;-151.14;100.00;62537.16;5018349;28;19927;-82
2023/07/19 08:43:24;;;;;;;;;;;25.00;66.20;;;-151.14;100.00;62537.16;5034704;28;20120;-82
2023/07/19 08:45:52;;;;;;;;;;;25.00;66.10;;;-151.14;100.00;62537.16;5033710;28;19921;-82
2023/07/19 08:48:20;;;;;;;;;;;25.00;66.30;;;-151.14;100.00;62537.16;5034465;28;19928;-82
2023/07/19 08:50:54;;;;;;;;;;;25.00;66.20;;;-151.14;100.00;62537.16;5034702;28;20209;-82
2023/07/19 08:53:23;;;;;;;;;;;25.00;66.40;;;-151.14;100.00;62537.16;5018131;28;20250;-82
2023/07/19 08:55:51;;;;;;;;;;;25.00;66.10;;;-151.14;100.00;62537.16;5051767;28;19921;-82
2023/07/19 08:58:19;;;;;;;;;;;25.00;66.50;;;-151.14;100.00;62537.16;5018022;28;19943;-82
2023/07/19 09:00:47;;;;;;;;;;;25.10;66.40;;;-151.14;100.00;62537.16;5018164;28;19927;-82
2023/07/19 09:03:16;;;;;;;;;;;25.10;66.70;;;-151.14;100.00;62537.16;5034403;28;19927;-82
2023/07/19 09:05:45;;;;;;;;;;;25.10;66.70;;;-151.14;100.00;62537.16;5033880;28;19920;-82
2023/07/19 09:08:14;;;;;;;;;;;25.10;66.70;;;-151.14;100.00;62537.16;5034506;28;19921;-82
2023/07/19 09:10:46;;;;;;;;;;;25.10;66.60;;;-151.14;100.00;62537.16;5017940;28;19927;-82
2023/07/19 09:13:18;;;;;;;;;;;25.10;66.40;;;-151.14;100.00;62537.16;5034278;28;19931;-82
2023/07/19 09:15:48;;;;;;;;;;;25.10;67.00;;;-151.14;100.00;62537.16;5017338;28;20224;-82
2023/07/19 09:18:30;;;;;;;;;;;25.10;66.70;;;-151.14;100.00;62537.16;5032118;28;19950;-82
2023/07/19 09:20:58;;;;;;;;;;;25.10;66.70;;;-151.14;100.00;62537.16;5031174;28;19943;-82
2023/07/19 09:23:27;;;;;;;;;;;25.10;66.60;;;-151.14;100.00;62537.16;5034160;28;19920;-82
2023/07/19 09:25:56;;;;;;;;;;;25.10;66.40;;;-151.14;100.00;62537.16;5033525;28;19927;-82
2023/07/19 09:28:24;;;;;;;;;;;25.10;66.50;;;-151.14;100.00;62537.16;5017548;28;19927;-82
2023/07/19 09:30:55;;;;;;;;;;;25.10;66.60;;;-151.14;100.00;62537.16;5051870;28;20120;-82
2023/07/19 09:33:23;;;;;;;;;;;25.10;66.90;;;-151.14;100.00;62537.16;5033764;28;19920;-82
2023/07/19 09:35:54;;;;;;;;;;;25.10;66.70;;;-151.14;100.00;62537.16;5016720;28;19921;-83
2023/07/19 09:38:22;;;;;;;;;;;25.10;66.90;;;-151.14;100.00;62537.16;5033767;28;19920;-82
2023/07/19 09:40:51;;;;;;;;;;;25.00;66.70;;;-151.14;100.00;62537.16;5017690;28;19920;-82
2023/07/19 09:43:20;;;;;;;;;;;25.00;66.80;;;-151.14;100.00;62537.16;5033556;28;19928;-82
2023/07/19 09:45:48;;;;;;;;;;;25.00;66.80;;;-151.14;100.00;62537.16;5033370;28;19979;-82
2023/07/19 09:48:16;;;;;;;;;;;25.00;66.80;;;-151.14;100.00;62537.16;5034681;28;19921;-82
2023/07/19 09:50:45;;;;;;;;;;;25.10;66.90;;;-151.14;100.00;62537.16;5034106;28;19927;-82
2023/07/19 09:53:14;;;;;;;;;;;25.00;66.80;;;-151.14;100.00;62537.16;5051313;28;19921;-82
2023/07/19 09:55:42;;;;;;;;;;;25.00;66.80;;;-151.14;100.00;62537.16;5033098;28;19929;-82
2023/07/19 09:58:12;;;;;;;;;;;25.00;66.90;;;-151.14;100.00;62537.16;5033245;28;19921;-83
2023/07/19 10:00:40;;;;;;;;;;;25.00;66.90;;;-151.14;100.00;62537.16;5033784;28;19935;-82
2023/07/19 10:03:08;;;;;;;;;;;25.00;66.90;;;-151.14;100.00;62537.16;5016919;28;19927;-82
2023/07/19 10:05:36;;;;;;;;;;;25.00;67.10;;;-151.14;100.00;62537.16;5051297;28;20226;-83
2023/07/19 10:08:05;;;;;;;;;;;25.00;67.10;;;-151.14;100.00;62537.16;5018385;28;19927;-83
2023/07/19 10:10:37;;;;;;;;;;;25.00;68.00;;;-151.14;100.00;62537.16;5052409;28;19927;-84
2023/07/19 10:13:06;;;;;;;;;;;25.00;67.10;;;-151.14;100.00;62537.16;5034463;28;19921;-82
2023/07/19 10:15:35;;;;;;;;;;;25.00;67.00;;;-151.14;100.00;62537.16;5033077;28;19943;-83
2023/07/19 10:18:03;;;;;;;;;;;25.00;67.10;;;-151.14;100.00;62537.16;5016910;28;19927;-82
2023/07/19 10:20:32;;;;;;;;;;;25.10;67.30;;;-151.14;100.00;62537.16;5051244;28;19928;-82
2023/07/19 10:23:02;;;;;;;;;;;25.10;68.10;;;-151.14;100.00;62537.16;5050928;28;19927;-82
2023/07/19 10:25:32;;;;;;;;;;;25.10;67.30;;;-151.14;100.00;62537.16;5016362;28;19921;-82
2023/07/19 10:28:02;;;;;;;;;;;25.10;67.20;;;-151.14;100.00;62537.16;5033363;28;19920;-82
2023/07/19 10:30:48;;;;;;;;;;;25.10;67.30;;;-151.14;100.00;62537.16;5033499;28;19924;-82
2023/07/19 10:33:17;;;;;;;;;;;25.10;67.30;;;-151.14;100.00;62537.16;5033300;28;19921;-82
2023/07/19 10:35:45;;;;;;;;;;;25.10;67.20;;;-151.14;100.00;62537.16;5032739;28;19929;-82
2023/07/19 10:38:16;;;;;;;;;;;25.10;67.30;;;-151.14;100.00;62537.16;5016756;28;19927;-82
2023/07/19 10:40:45;;;;;;;;;;;25.10;67.30;;;-151.14;100.00;62537.16;5033217;28;19921;-82
2023/07/19 10:43:13;;;;;;;;;;;25.10;67.20;;;-151.14;100.00;62537.16;5032892;28;19927;-82
2023/07/19 10:45:42;;;;;;;;;;;25.10;67.60;;;-151.14;100.00;62537.16;5032662;28;19936;-83
2023/07/19 10:48:12;;;;;;;;;;;25.10;67.30;;;-151.14;100.00;62537.16;5033060;28;19927;-82
2023/07/19 10:50:40;;;;;;;;;;;25.10;68.50;;;-151.14;100.00;62537.16;5016620;28;19921;-82
2023/07/19 10:53:08;;;;;;;;;;;25.10;67.70;;;-151.14;100.00;62537.16;5016557;28;19921;-82
2023/07/19 10:55:36;;;;;;;;;;;25.10;67.60;;;-151.14;100.00;62537.16;5032189;28;19943;-82
2023/07/19 10:58:05;;;;;;;;;;;25.10;67.50;;;-151.14;100.00;62537.16;5032915;28;19920;-82
2023/07/19 11:00:37;;;;;;;;;;;25.10;67.40;;;-151.14;100.00;62537.16;5016521;28;19927;-82
2023/07/19 11:03:07;;;;;;;;;;;25.10;67.60;;;-151.14;100.00;62537.16;5016226;28;19927;-82